createdAt,value
2022-11-10T00:01:48.250Z,5.60
2022-11-10T00:05:11.044Z,5.60
2022-11-10T00:08:33.064Z,5.60
2022-11-10T00:11:55.149Z,5.70
2022-11-10T00:15:46.029Z,5.60
2022-11-10T00:19:09.648Z,5.60
2022-11-10T00:22:32.156Z,5.70
2022-11-10T00:25:54.000Z,5.70
2022-11-10T00:29:15.773Z,5.80
2022-11-10T00:32:37.585Z,6.00
2022-11-10T00:36:02.968Z,6.10
2022-11-10T00:39:24.956Z,6.00
2022-11-10T00:42:46.682Z,5.90
2022-11-10T00:46:08.493Z,6.00
2022-11-10T00:49:30.608Z,6.00
2022-11-10T00:52:53.947Z,6.10
2022-11-10T00:56:15.930Z,6.10
2022-11-10T00:59:37.934Z,6.10
2022-11-10T01:02:59.961Z,6.00
2022-11-10T01:06:22.768Z,6.00
2022-11-10T01:09:45.865Z,5.90
2022-11-10T01:13:07.555Z,5.80
2022-11-10T01:16:31.258Z,5.80
2022-11-10T01:19:53.154Z,5.70
2022-11-10T01:23:14.763Z,5.70
2022-11-10T01:26:37.794Z,5.50
2022-11-10T01:29:59.748Z,5.40
2022-11-10T01:33:21.747Z,5.30
2022-11-10T01:36:43.693Z,5.10
2022-11-10T01:40:06.155Z,5.10
2022-11-10T01:43:30.002Z,5.20
2022-11-10T01:46:51.765Z,5.20
2022-11-10T01:50:13.841Z,5.10
2022-11-10T01:53:39.757Z,5.40
2022-11-10T01:57:05.197Z,5.30
2022-11-10T02:00:50.965Z,5.50
2022-11-10T02:04:17.630Z,5.40
2022-11-10T02:07:40.118Z,5.40
2022-11-10T02:11:02.071Z,5.30
2022-11-10T02:14:24.399Z,5.20
2022-11-10T02:17:47.938Z,5.20
2022-11-10T02:21:11.273Z,5.10
2022-11-10T02:24:33.508Z,5.00
2022-11-10T02:27:55.043Z,5.10
2022-11-10T02:31:16.801Z,5.20
2022-11-10T02:34:38.557Z,5.20
2022-11-10T02:38:01.730Z,5.30
2022-11-10T02:41:23.784Z,5.50
2022-11-10T02:44:45.393Z,5.30
2022-11-10T02:48:07.633Z,5.40
2022-11-10T02:51:29.336Z,5.60
2022-11-10T02:54:52.207Z,5.70
2022-11-10T02:58:13.710Z,5.80
2022-11-10T03:01:35.625Z,5.80
2022-11-10T03:04:57.281Z,5.80
2022-11-10T03:08:19.064Z,5.80
2022-11-10T03:11:42.144Z,5.80
2022-11-10T03:15:03.957Z,5.70
2022-11-10T03:18:25.848Z,5.70
2022-11-10T03:21:47.533Z,5.50
2022-11-10T03:25:11.185Z,5.50
2022-11-10T03:28:34.475Z,5.40
2022-11-10T03:31:56.106Z,5.30
2022-11-10T03:35:18.019Z,5.20
2022-11-10T03:38:39.605Z,5.10
2022-11-10T03:42:01.360Z,5.00
2022-11-10T03:45:24.720Z,5.00
2022-11-10T03:48:52.035Z,4.90
2022-11-10T03:52:15.709Z,4.80
2022-11-10T03:55:37.469Z,4.70
2022-11-10T03:58:59.182Z,4.70
2022-11-10T04:02:22.561Z,4.70
2022-11-10T04:06:02.345Z,4.80
2022-11-10T04:09:24.376Z,4.90
2022-11-10T04:13:04.895Z,5.20
2022-11-10T04:16:29.111Z,5.30
2022-11-10T04:20:00.176Z,5.40
2022-11-10T04:23:56.681Z,5.30
2022-11-10T04:27:23.019Z,5.20
2022-11-10T04:31:12.893Z,5.10
2022-11-10T04:34:40.000Z,5.20
2022-11-10T04:38:10.394Z,5.00
2022-11-10T04:41:36.549Z,5.00
2022-11-10T04:45:00.786Z,4.90
2022-11-10T04:48:33.607Z,5.00
2022-11-10T04:51:58.134Z,4.90
2022-11-10T04:55:27.905Z,5.10
2022-11-10T04:59:00.963Z,5.00
2022-11-10T05:02:27.824Z,5.00
2022-11-10T05:05:55.376Z,4.90
2022-11-10T05:09:22.795Z,4.90
2022-11-10T05:12:46.263Z,4.80
2022-11-10T05:16:08.964Z,4.70
2022-11-10T05:19:30.907Z,4.80
2022-11-10T05:23:16.863Z,4.80
2022-11-10T05:26:38.712Z,4.80
2022-11-10T05:30:02.105Z,4.70
2022-11-10T05:33:24.195Z,4.70
2022-11-10T05:36:46.477Z,4.70
2022-11-10T05:40:09.766Z,4.70
2022-11-10T05:43:31.469Z,4.70
2022-11-10T05:46:54.669Z,4.70
2022-11-10T05:50:17.225Z,4.60
2022-11-10T05:53:39.329Z,4.60
2022-11-10T05:57:01.052Z,4.70
2022-11-10T06:00:24.863Z,4.60
2022-11-10T06:03:52.677Z,4.60
2022-11-10T06:07:14.849Z,4.80
2022-11-10T06:10:38.019Z,4.90
2022-11-10T06:14:01.043Z,5.10
2022-11-10T06:17:22.857Z,5.20
2022-11-10T06:20:47.439Z,5.40
2022-11-10T06:24:11.080Z,5.50
2022-11-10T06:27:33.559Z,5.60
2022-11-10T06:30:58.678Z,5.70
2022-11-10T06:34:20.521Z,5.80
2022-11-10T06:37:43.589Z,5.90
2022-11-10T06:41:05.429Z,6.00
2022-11-10T06:44:27.252Z,6.20
2022-11-10T06:47:49.356Z,6.20
2022-11-10T06:51:11.328Z,6.20
2022-11-10T06:54:34.518Z,6.20
2022-11-10T06:57:56.620Z,6.30
2022-11-10T07:01:22.472Z,6.20
2022-11-10T07:04:44.581Z,6.30
2022-11-10T07:08:08.397Z,6.40
2022-11-10T07:11:31.785Z,6.40
2022-11-10T07:14:53.493Z,6.50
2022-11-10T07:18:15.652Z,6.50
2022-11-10T07:21:37.728Z,6.50
2022-11-10T07:24:59.627Z,6.60
2022-11-10T07:28:28.117Z,6.80
2022-11-10T07:31:50.060Z,6.90
2022-11-10T07:35:12.809Z,6.90
2022-11-10T07:38:35.136Z,6.90
2022-11-10T07:41:57.970Z,7.10
2022-11-10T07:45:21.499Z,7.20
2022-11-10T07:48:43.674Z,7.20
2022-11-10T07:52:05.854Z,7.30
2022-11-10T07:55:27.454Z,7.40
2022-11-10T07:58:49.162Z,7.50
2022-11-10T08:02:12.785Z,7.60
2022-11-10T08:05:35.782Z,7.60
2022-11-10T08:08:57.796Z,7.70
2022-11-10T08:12:19.651Z,7.60
2022-11-10T08:15:42.473Z,7.70
2022-11-10T08:19:05.868Z,7.70
2022-11-10T08:22:27.943Z,7.70
2022-11-10T08:25:52.932Z,7.70
2022-11-10T08:29:14.697Z,7.70
2022-11-10T08:32:37.167Z,7.70
2022-11-10T08:36:03.030Z,7.70
2022-11-10T08:39:38.736Z,7.70
2022-11-10T08:43:01.755Z,7.70
2022-11-10T08:46:23.224Z,7.70
2022-11-10T08:49:44.648Z,7.70
2022-11-10T08:53:13.662Z,7.60
2022-11-10T08:56:35.426Z,7.70
2022-11-10T08:59:57.427Z,7.70
2022-11-10T09:03:20.875Z,7.70
2022-11-10T09:06:42.924Z,7.80
2022-11-10T09:10:07.836Z,7.80
2022-11-10T09:13:30.959Z,7.90
2022-11-10T09:16:53.013Z,8.00
2022-11-10T09:20:15.001Z,8.10
2022-11-10T09:23:36.656Z,8.10
2022-11-10T09:26:59.770Z,8.20
2022-11-10T09:30:21.348Z,8.20
2022-11-10T09:33:43.130Z,8.30
2022-11-10T09:37:05.179Z,8.40
2022-11-10T09:40:33.132Z,8.50
2022-11-10T09:44:04.022Z,8.60
2022-11-10T09:47:56.111Z,8.60
2022-11-10T09:51:21.080Z,8.70
2022-11-10T09:54:46.706Z,8.70
2022-11-10T09:58:13.128Z,8.70
2022-11-10T10:01:43.936Z,8.70
2022-11-10T10:05:27.733Z,8.80
2022-11-10T10:09:04.378Z,8.90
2022-11-10T10:12:46.326Z,9.00
2022-11-10T10:16:17.344Z,9.10
2022-11-10T10:19:48.267Z,9.10
2022-11-10T10:23:19.702Z,9.20
2022-11-10T10:26:48.784Z,9.10
2022-11-10T10:30:14.999Z,9.10
2022-11-10T10:33:37.104Z,9.10
2022-11-10T10:37:00.382Z,9.20
2022-11-10T10:40:23.941Z,9.10
2022-11-10T10:43:49.921Z,9.20
2022-11-10T10:47:11.931Z,9.20
2022-11-10T10:50:35.708Z,9.20
2022-11-10T10:53:58.805Z,9.30
2022-11-10T10:57:23.967Z,9.20
2022-11-10T11:00:47.305Z,9.30
2022-11-10T11:04:31.135Z,9.30
2022-11-10T11:07:56.699Z,9.40
2022-11-10T11:11:19.911Z,9.50
2022-11-10T11:14:46.020Z,9.60
2022-11-10T11:18:15.655Z,9.60
2022-11-10T11:21:40.690Z,9.60
2022-11-10T11:25:12.272Z,9.70
2022-11-10T11:28:44.784Z,9.80
2022-11-10T11:32:24.827Z,9.90
2022-11-10T11:35:51.404Z,9.90
2022-11-10T11:39:28.366Z,10.00
2022-11-10T11:43:03.425Z,10.00
2022-11-10T11:46:36.002Z,10.00
2022-11-10T11:50:15.186Z,9.90
2022-11-10T11:53:50.392Z,9.90
2022-11-10T11:57:28.231Z,9.90
2022-11-10T12:01:01.692Z,10.00
2022-11-10T12:04:40.953Z,9.90
2022-11-10T12:08:14.171Z,10.00
2022-11-10T12:11:54.467Z,10.00
2022-11-10T12:15:29.004Z,10.00
2022-11-10T12:18:58.504Z,10.00
2022-11-10T12:22:34.845Z,10.10
2022-11-10T12:26:05.722Z,10.10
2022-11-10T12:29:34.383Z,10.10
2022-11-10T12:33:03.520Z,10.00
2022-11-10T12:36:28.839Z,9.90
2022-11-10T12:39:57.727Z,9.80
2022-11-10T12:43:34.918Z,9.80
2022-11-10T12:47:01.951Z,9.80
2022-11-10T12:50:33.460Z,9.80
2022-11-10T12:53:55.347Z,9.80
2022-11-10T12:57:21.361Z,9.80
2022-11-10T13:00:47.061Z,9.80
2022-11-10T13:04:08.970Z,9.80
2022-11-10T13:07:30.699Z,9.90
2022-11-10T13:10:55.999Z,9.90
2022-11-10T13:14:26.075Z,10.00
2022-11-10T13:17:55.700Z,10.00
2022-11-10T13:21:18.420Z,10.00
2022-11-10T13:24:42.471Z,10.10
2022-11-10T13:28:05.549Z,10.10
2022-11-10T13:31:42.528Z,10.20
2022-11-10T13:35:38.080Z,10.30
2022-11-10T13:39:18.334Z,10.30
2022-11-10T13:42:46.030Z,10.30
2022-11-10T13:46:09.707Z,10.20
2022-11-10T13:49:54.327Z,10.20
2022-11-10T13:53:30.227Z,10.20
2022-11-10T13:57:07.923Z,10.20
2022-11-10T14:00:31.183Z,10.30
2022-11-10T14:03:57.615Z,10.30
2022-11-10T14:07:22.258Z,10.40
2022-11-10T14:10:50.938Z,10.50
2022-11-10T14:14:18.067Z,10.60
2022-11-10T14:17:45.603Z,10.50
2022-11-10T14:21:11.026Z,10.40
2022-11-10T14:24:39.191Z,10.30
2022-11-10T14:28:01.236Z,10.20
2022-11-10T14:31:25.517Z,10.10
2022-11-10T14:34:51.355Z,10.00
2022-11-10T14:38:21.854Z,9.90
2022-11-10T14:41:49.566Z,9.90
2022-11-10T14:45:18.715Z,9.80
2022-11-10T14:48:40.932Z,9.80
2022-11-10T14:52:02.865Z,9.70
2022-11-10T14:55:30.133Z,9.60
2022-11-10T14:58:55.953Z,9.50
2022-11-10T15:02:20.747Z,9.50
2022-11-10T15:05:43.290Z,9.40
2022-11-10T15:09:14.462Z,9.30
2022-11-10T15:12:41.793Z,9.20
2022-11-10T15:16:26.607Z,9.20
2022-11-10T15:19:56.124Z,9.30
2022-11-10T15:23:23.612Z,9.20
2022-11-10T15:26:45.397Z,9.20
2022-11-10T15:30:22.980Z,9.20
2022-11-10T15:33:54.118Z,9.10
2022-11-10T15:37:30.591Z,9.10
2022-11-10T15:41:07.367Z,9.20
2022-11-10T15:44:29.546Z,9.10
2022-11-10T15:47:51.352Z,9.10
2022-11-10T15:51:20.105Z,9.10
2022-11-10T15:54:46.158Z,9.10
2022-11-10T15:58:12.851Z,9.20
2022-11-10T16:01:34.890Z,9.30
2022-11-10T16:04:59.784Z,9.30
2022-11-10T16:08:24.774Z,9.40
2022-11-10T16:11:47.351Z,9.40
2022-11-10T16:15:18.992Z,9.40
2022-11-10T16:18:43.803Z,9.50
2022-11-10T16:22:06.039Z,9.50
2022-11-10T16:25:29.750Z,9.60
2022-11-10T16:28:51.724Z,9.60
2022-11-10T16:32:13.775Z,9.60
2022-11-10T16:35:35.986Z,9.70
2022-11-10T16:38:58.211Z,9.70
2022-11-10T16:42:22.853Z,9.70
2022-11-10T16:45:45.726Z,9.70
2022-11-10T16:49:16.342Z,9.70
2022-11-10T16:52:38.208Z,9.70
2022-11-10T16:56:00.398Z,9.70
2022-11-10T16:59:23.657Z,9.70
2022-11-10T17:02:51.314Z,9.80
2022-11-10T17:06:14.450Z,9.70
2022-11-10T17:09:36.771Z,9.70
2022-11-10T17:12:58.754Z,9.70
2022-11-10T17:16:28.524Z,9.70
2022-11-10T17:19:51.927Z,9.70
2022-11-10T17:23:18.477Z,9.70
2022-11-10T17:26:40.694Z,9.70
2022-11-10T17:30:02.936Z,9.70
2022-11-10T17:33:26.624Z,9.70
2022-11-10T17:36:50.961Z,9.60
2022-11-10T17:40:20.169Z,9.60
2022-11-10T17:43:45.604Z,9.60
2022-11-10T17:47:07.664Z,9.70
2022-11-10T17:50:32.872Z,9.60
2022-11-10T17:53:55.083Z,9.60
2022-11-10T17:57:17.322Z,9.60
2022-11-10T18:00:40.063Z,9.60
2022-11-10T18:04:01.745Z,9.60
2022-11-10T18:07:25.215Z,9.60
2022-11-10T18:10:49.308Z,9.60
2022-11-10T18:14:13.806Z,9.60
2022-11-10T18:17:35.353Z,9.50
2022-11-10T18:20:58.671Z,9.50
2022-11-10T18:24:23.381Z,9.40
2022-11-10T18:27:45.557Z,9.40
2022-11-10T18:31:08.155Z,9.40
2022-11-10T18:34:30.265Z,9.30
2022-11-10T18:37:52.438Z,9.30
2022-11-10T18:41:33.166Z,9.20
2022-11-10T18:44:55.019Z,9.20
2022-11-10T18:48:17.147Z,9.20
2022-11-10T18:51:39.143Z,9.20
2022-11-10T18:55:00.988Z,9.30
2022-11-10T18:58:24.019Z,9.20
2022-11-10T19:01:48.065Z,9.20
2022-11-10T19:05:10.849Z,9.20
2022-11-10T19:08:33.516Z,9.10
2022-11-10T19:11:56.039Z,9.00
2022-11-10T19:15:19.521Z,9.00
2022-11-10T19:18:42.978Z,8.90
2022-11-10T19:22:05.767Z,8.80
2022-11-10T19:25:27.741Z,8.70
2022-11-10T19:28:50.051Z,8.60
2022-11-10T19:32:13.067Z,8.50
2022-11-10T19:35:35.382Z,8.50
2022-11-10T19:38:57.956Z,8.50
2022-11-10T19:42:19.701Z,8.40
2022-11-10T19:45:42.352Z,8.40
2022-11-10T19:49:06.388Z,8.30
2022-11-10T19:52:29.165Z,8.30
2022-11-10T19:55:52.462Z,8.20
2022-11-10T19:59:18.254Z,8.20
2022-11-10T20:02:45.615Z,8.30
2022-11-10T20:06:10.860Z,8.30
2022-11-10T20:09:32.754Z,8.30
2022-11-10T20:12:54.625Z,8.20
2022-11-10T20:16:17.536Z,8.20
2022-11-10T20:19:41.109Z,8.20
2022-11-10T20:23:08.322Z,8.10
2022-11-10T20:26:30.246Z,7.90
2022-11-10T20:29:52.321Z,7.90
2022-11-10T20:33:14.670Z,7.90
2022-11-10T20:36:36.847Z,8.00
2022-11-10T20:40:02.479Z,7.90
2022-11-10T20:43:25.205Z,7.90
2022-11-10T20:46:55.374Z,7.90
2022-11-10T20:50:23.060Z,7.80
2022-11-10T20:53:46.647Z,7.80
2022-11-10T20:57:09.908Z,7.80
2022-11-10T21:00:31.912Z,7.80
2022-11-10T21:03:57.170Z,7.80
2022-11-10T21:07:19.674Z,7.70
2022-11-10T21:10:41.887Z,7.80
2022-11-10T21:14:17.552Z,7.80
2022-11-10T21:17:43.945Z,7.80
2022-11-10T21:21:19.626Z,7.90
2022-11-10T21:24:46.759Z,7.90
2022-11-10T21:28:12.093Z,7.90
2022-11-10T21:31:36.052Z,7.90
2022-11-10T21:34:58.512Z,8.00
2022-11-10T21:38:21.673Z,8.00
2022-11-10T21:41:46.158Z,8.00
2022-11-10T21:45:09.872Z,8.10
2022-11-10T21:48:33.522Z,8.20
2022-11-10T21:51:57.187Z,8.20
2022-11-10T21:55:20.216Z,8.10
2022-11-10T21:58:42.551Z,8.10
2022-11-10T22:02:05.735Z,8.00
2022-11-10T22:05:30.540Z,8.00
2022-11-10T22:08:54.407Z,7.90
2022-11-10T22:12:34.830Z,7.80
2022-11-10T22:16:13.982Z,7.70
2022-11-10T22:19:37.374Z,7.60
2022-11-10T22:23:00.774Z,7.60
2022-11-10T22:26:22.821Z,7.50
2022-11-10T22:29:46.103Z,7.40
2022-11-10T22:33:22.286Z,7.40
2022-11-10T22:36:44.656Z,7.30
2022-11-10T22:40:27.203Z,7.20
2022-11-10T22:44:02.640Z,7.20
2022-11-10T22:47:24.618Z,7.20
2022-11-10T22:50:55.507Z,7.00
2022-11-10T22:54:19.038Z,6.90
2022-11-10T22:57:42.907Z,6.80
2022-11-10T23:01:06.319Z,6.80
2022-11-10T23:04:27.991Z,6.80
2022-11-10T23:07:49.990Z,6.70
2022-11-10T23:11:13.671Z,6.60
2022-11-10T23:14:37.562Z,6.50
2022-11-10T23:18:05.290Z,6.40
2022-11-10T23:21:30.424Z,6.30
2022-11-10T23:24:57.006Z,6.40
2022-11-10T23:28:19.248Z,6.30
2022-11-10T23:31:42.477Z,6.40
2022-11-10T23:35:04.530Z,6.30
2022-11-10T23:38:26.840Z,6.40
2022-11-10T23:41:48.559Z,6.30
2022-11-10T23:45:11.714Z,6.20
2022-11-10T23:48:35.140Z,6.30
2022-11-10T23:51:57.141Z,6.20
2022-11-10T23:55:18.763Z,6.30
2022-11-10T23:58:40.908Z,6.20
